sensor_id;sensor_type;location;lat;lon;timestamp;P1;durP1;ratioP1;P2;durP2;ratioP2
3083;SDS011;1552;51.952;7.618;2024-03-22T00:01:54;29.33;;;16.10;;
3083;SDS011;1552;51.952;7.618;2024-03-22T00:04:20;28.40;;;15.53;;
3083;SDS011;1552;51.952;7.618;2024-03-22T00:06:47;31.87;;;15.73;;
3083;SDS011;1552;51.952;7.618;2024-03-22T00:09:12;30.87;;;16.77;;
3083;SDS011;1552;51.952;7.618;2024-03-22T00:11:39;29.77;;;16.30;;
3083;SDS011;1552;51.952;7.618;2024-03-22T00:14:04;31.23;;;15.70;;
3083;SDS011;1552;51.952;7.618;2024-03-22T00:16:31;29.67;;;15.93;;
3083;SDS011;1552;51.952;7.618;2024-03-22T00:18:57;27.13;;;16.53;;
3083;SDS011;1552;51.952;7.618;2024-03-22T00:21:24;33.23;;;17.70;;
3083;SDS011;1552;51.952;7.618;2024-03-22T00:23:49;30.33;;;16.43;;
3083;SDS011;1552;51.952;7.618;2024-03-22T00:26:15;33.93;;;16.23;;
3083;SDS011;1552;51.952;7.618;2024-03-22T00:28:41;32.73;;;17.20;;
3083;SDS011;1552;51.952;7.618;2024-03-22T00:31:07;33.67;;;17.30;;
3083;SDS011;1552;51.952;7.618;2024-03-22T00:33:33;32.47;;;17.43;;
3083;SDS011;1552;51.952;7.618;2024-03-22T00:36:00;39.03;;;19.53;;
3083;SDS011;1552;51.952;7.618;2024-03-22T00:38:26;35.80;;;18.87;;
3083;SDS011;1552;51.952;7.618;2024-03-22T00:40:53;40.40;;;18.43;;
3083;SDS011;1552;51.952;7.618;2024-03-22T00:43:18;43.13;;;18.83;;
3083;SDS011;1552;51.952;7.618;2024-03-22T00:45:45;37.50;;;19.47;;
3083;SDS011;1552;51.952;7.618;2024-03-22T00:48:10;41.30;;;20.33;;
3083;SDS011;1552;51.952;7.618;2024-03-22T00:50:36;40.57;;;19.80;;
3083;SDS011;1552;51.952;7.618;2024-03-22T00:53:03;36.53;;;19.10;;
3083;SDS011;1552;51.952;7.618;2024-03-22T00:55:30;39.07;;;19.87;;
3083;SDS011;1552;51.952;7.618;2024-03-22T00:57:56;39.53;;;20.63;;
3083;SDS011;1552;51.952;7.618;2024-03-22T01:00:22;43.33;;;21.27;;
3083;SDS011;1552;51.952;7.618;2024-03-22T01:02:49;43.30;;;21.47;;
3083;SDS011;1552;51.952;7.618;2024-03-22T01:05:15;39.37;;;20.13;;
3083;SDS011;1552;51.952;7.618;2024-03-22T01:07:43;42.10;;;20.47;;
3083;SDS011;1552;51.952;7.618;2024-03-22T01:10:11;38.97;;;19.73;;
3083;SDS011;1552;51.952;7.618;2024-03-22T01:12:37;48.97;;;19.97;;
3083;SDS011;1552;51.952;7.618;2024-03-22T01:15:04;38.93;;;18.87;;
3083;SDS011;1552;51.952;7.618;2024-03-22T01:17:29;39.13;;;19.77;;
3083;SDS011;1552;51.952;7.618;2024-03-22T01:19:56;39.40;;;20.37;;
3083;SDS011;1552;51.952;7.618;2024-03-22T01:22:21;38.23;;;19.30;;
3083;SDS011;1552;51.952;7.618;2024-03-22T01:24:48;41.83;;;20.33;;
3083;SDS011;1552;51.952;7.618;2024-03-22T01:27:14;41.50;;;19.37;;
3083;SDS011;1552;51.952;7.618;2024-03-22T01:29:41;40.33;;;20.60;;
3083;SDS011;1552;51.952;7.618;2024-03-22T01:32:06;44.30;;;19.43;;
3083;SDS011;1552;51.952;7.618;2024-03-22T01:34:33;35.97;;;19.30;;
3083;SDS011;1552;51.952;7.618;2024-03-22T01:36:59;42.13;;;19.80;;
3083;SDS011;1552;51.952;7.618;2024-03-22T01:39:26;50.73;;;20.73;;
3083;SDS011;1552;51.952;7.618;2024-03-22T01:41:51;37.13;;;19.23;;
3083;SDS011;1552;51.952;7.618;2024-03-22T01:44:19;39.93;;;19.50;;
3083;SDS011;1552;51.952;7.618;2024-03-22T01:46:44;40.53;;;19.90;;
3083;SDS011;1552;51.952;7.618;2024-03-22T01:49:12;43.30;;;19.40;;
3083;SDS011;1552;51.952;7.618;2024-03-22T01:51:38;39.60;;;19.30;;
3083;SDS011;1552;51.952;7.618;2024-03-22T01:54:04;40.33;;;18.50;;
3083;SDS011;1552;51.952;7.618;2024-03-22T01:56:30;44.47;;;20.90;;
3083;SDS011;1552;51.952;7.618;2024-03-22T01:58:56;45.77;;;18.93;;
3083;SDS011;1552;51.952;7.618;2024-03-22T02:01:23;42.43;;;19.47;;
3083;SDS011;1552;51.952;7.618;2024-03-22T02:03:50;44.57;;;19.47;;
3083;SDS011;1552;51.952;7.618;2024-03-22T02:06:15;41.07;;;19.43;;
3083;SDS011;1552;51.952;7.618;2024-03-22T02:08:41;37.80;;;18.83;;
3083;SDS011;1552;51.952;7.618;2024-03-22T02:11:09;35.63;;;18.63;;
3083;SDS011;1552;51.952;7.618;2024-03-22T02:13:35;44.77;;;20.40;;
3083;SDS011;1552;51.952;7.618;2024-03-22T02:16:02;41.27;;;18.50;;
3083;SDS011;1552;51.952;7.618;2024-03-22T02:18:29;33.23;;;16.80;;
3083;SDS011;1552;51.952;7.618;2024-03-22T02:20:56;36.53;;;17.87;;
3083;SDS011;1552;51.952;7.618;2024-03-22T02:23:32;34.97;;;18.13;;
3083;SDS011;1552;51.952;7.618;2024-03-22T02:25:57;39.37;;;18.77;;
3083;SDS011;1552;51.952;7.618;2024-03-22T02:28:24;41.00;;;18.10;;
3083;SDS011;1552;51.952;7.618;2024-03-22T02:30:49;32.57;;;16.67;;
3083;SDS011;1552;51.952;7.618;2024-03-22T02:33:15;37.93;;;17.77;;
3083;SDS011;1552;51.952;7.618;2024-03-22T02:35:41;37.60;;;17.77;;
3083;SDS011;1552;51.952;7.618;2024-03-22T02:38:07;39.90;;;18.53;;
3083;SDS011;1552;51.952;7.618;2024-03-22T02:40:34;33.37;;;17.60;;
3083;SDS011;1552;51.952;7.618;2024-03-22T02:43:00;35.20;;;17.50;;
3083;SDS011;1552;51.952;7.618;2024-03-22T02:45:25;40.63;;;19.07;;
3083;SDS011;1552;51.952;7.618;2024-03-22T02:47:52;43.53;;;18.37;;
3083;SDS011;1552;51.952;7.618;2024-03-22T02:50:17;37.37;;;17.67;;
3083;SDS011;1552;51.952;7.618;2024-03-22T02:52:43;42.27;;;18.10;;
3083;SDS011;1552;51.952;7.618;2024-03-22T02:55:08;40.17;;;18.83;;
3083;SDS011;1552;51.952;7.618;2024-03-22T02:57:36;36.57;;;17.93;;
3083;SDS011;1552;51.952;7.618;2024-03-22T03:00:01;34.40;;;17.50;;
3083;SDS011;1552;51.952;7.618;2024-03-22T03:02:28;38.30;;;18.07;;
3083;SDS011;1552;51.952;7.618;2024-03-22T03:04:53;33.13;;;17.63;;
3083;SDS011;1552;51.952;7.618;2024-03-22T03:07:20;36.57;;;17.17;;
3083;SDS011;1552;51.952;7.618;2024-03-22T03:09:45;35.47;;;18.70;;
3083;SDS011;1552;51.952;7.618;2024-03-22T03:12:11;35.37;;;17.57;;
3083;SDS011;1552;51.952;7.618;2024-03-22T03:14:38;46.67;;;18.93;;
3083;SDS011;1552;51.952;7.618;2024-03-22T03:17:04;43.33;;;19.20;;
3083;SDS011;1552;51.952;7.618;2024-03-22T03:19:29;32.27;;;16.83;;
3083;SDS011;1552;51.952;7.618;2024-03-22T03:21:56;39.20;;;17.67;;
3083;SDS011;1552;51.952;7.618;2024-03-22T03:24:21;39.63;;;17.93;;
3083;SDS011;1552;51.952;7.618;2024-03-22T03:26:47;47.67;;;18.73;;
3083;SDS011;1552;51.952;7.618;2024-03-22T03:29:13;36.20;;;17.67;;
3083;SDS011;1552;51.952;7.618;2024-03-22T03:31:40;36.80;;;17.70;;
3083;SDS011;1552;51.952;7.618;2024-03-22T03:34:05;33.97;;;17.90;;
3083;SDS011;1552;51.952;7.618;2024-03-22T03:36:32;41.13;;;17.97;;
3083;SDS011;1552;51.952;7.618;2024-03-22T03:38:57;35.67;;;16.77;;
3083;SDS011;1552;51.952;7.618;2024-03-22T03:41:23;35.87;;;17.03;;
3083;SDS011;1552;51.952;7.618;2024-03-22T03:43:49;39.97;;;15.87;;
3083;SDS011;1552;51.952;7.618;2024-03-22T03:46:16;41.03;;;18.33;;
3083;SDS011;1552;51.952;7.618;2024-03-22T03:48:43;37.73;;;17.03;;
3083;SDS011;1552;51.952;7.618;2024-03-22T03:51:09;33.60;;;17.57;;
3083;SDS011;1552;51.952;7.618;2024-03-22T03:53:34;40.07;;;17.07;;
3083;SDS011;1552;51.952;7.618;2024-03-22T03:56:00;33.30;;;18.23;;
3083;SDS011;1552;51.952;7.618;2024-03-22T03:58:26;34.93;;;16.73;;
3083;SDS011;1552;51.952;7.618;2024-03-22T04:00:52;40.27;;;17.87;;
3083;SDS011;1552;51.952;7.618;2024-03-22T04:03:18;37.83;;;19.10;;
3083;SDS011;1552;51.952;7.618;2024-03-22T04:05:45;35.03;;;16.13;;
3083;SDS011;1552;51.952;7.618;2024-03-22T04:08:11;38.03;;;16.83;;
3083;SDS011;1552;51.952;7.618;2024-03-22T04:10:37;36.10;;;17.80;;
3083;SDS011;1552;51.952;7.618;2024-03-22T04:13:02;45.83;;;19.27;;
3083;SDS011;1552;51.952;7.618;2024-03-22T04:15:29;38.73;;;17.60;;
3083;SDS011;1552;51.952;7.618;2024-03-22T04:17:58;36.77;;;17.43;;
3083;SDS011;1552;51.952;7.618;2024-03-22T04:20:24;42.37;;;16.77;;
3083;SDS011;1552;51.952;7.618;2024-03-22T04:22:51;39.20;;;18.23;;
3083;SDS011;1552;51.952;7.618;2024-03-22T04:25:18;32.93;;;16.60;;
3083;SDS011;1552;51.952;7.618;2024-03-22T04:27:43;33.70;;;16.47;;
3083;SDS011;1552;51.952;7.618;2024-03-22T04:30:10;34.97;;;16.73;;
3083;SDS011;1552;51.952;7.618;2024-03-22T04:32:35;35.67;;;16.50;;
3083;SDS011;1552;51.952;7.618;2024-03-22T04:35:02;36.23;;;16.97;;
3083;SDS011;1552;51.952;7.618;2024-03-22T04:37:27;34.23;;;16.20;;
3083;SDS011;1552;51.952;7.618;2024-03-22T04:39:55;37.10;;;17.40;;
3083;SDS011;1552;51.952;7.618;2024-03-22T04:42:21;34.73;;;16.07;;
3083;SDS011;1552;51.952;7.618;2024-03-22T04:44:47;32.00;;;16.67;;
3083;SDS011;1552;51.952;7.618;2024-03-22T04:47:14;38.07;;;17.20;;
3083;SDS011;1552;51.952;7.618;2024-03-22T04:49:39;32.03;;;16.23;;
3083;SDS011;1552;51.952;7.618;2024-03-22T04:52:06;37.37;;;17.87;;
3083;SDS011;1552;51.952;7.618;2024-03-22T04:54:32;36.13;;;16.70;;
3083;SDS011;1552;51.952;7.618;2024-03-22T04:56:58;40.60;;;17.33;;
3083;SDS011;1552;51.952;7.618;2024-03-22T04:59:25;40.97;;;17.40;;
3083;SDS011;1552;51.952;7.618;2024-03-22T05:01:50;33.40;;;16.33;;
3083;SDS011;1552;51.952;7.618;2024-03-22T05:04:16;35.67;;;17.20;;
3083;SDS011;1552;51.952;7.618;2024-03-22T05:06:42;40.30;;;17.10;;
3083;SDS011;1552;51.952;7.618;2024-03-22T05:09:08;34.47;;;16.17;;
3083;SDS011;1552;51.952;7.618;2024-03-22T05:11:35;35.40;;;17.47;;
3083;SDS011;1552;51.952;7.618;2024-03-22T05:14:02;41.60;;;17.90;;
3083;SDS011;1552;51.952;7.618;2024-03-22T05:16:28;37.50;;;18.03;;
3083;SDS011;1552;51.952;7.618;2024-03-22T05:18:54;34.03;;;16.23;;
3083;SDS011;1552;51.952;7.618;2024-03-22T05:21:20;39.87;;;17.53;;
3083;SDS011;1552;51.952;7.618;2024-03-22T05:23:46;34.37;;;16.77;;
3083;SDS011;1552;51.952;7.618;2024-03-22T05:26:12;34.30;;;17.20;;
3083;SDS011;1552;51.952;7.618;2024-03-22T05:28:38;33.27;;;17.93;;
3083;SDS011;1552;51.952;7.618;2024-03-22T05:31:05;40.67;;;17.43;;
3083;SDS011;1552;51.952;7.618;2024-03-22T05:33:31;36.00;;;16.70;;
3083;SDS011;1552;51.952;7.618;2024-03-22T05:35:57;33.33;;;16.57;;
3083;SDS011;1552;51.952;7.618;2024-03-22T05:38:24;34.33;;;16.03;;
3083;SDS011;1552;51.952;7.618;2024-03-22T05:40:49;41.00;;;16.77;;
3083;SDS011;1552;51.952;7.618;2024-03-22T05:43:15;34.67;;;15.93;;
3083;SDS011;1552;51.952;7.618;2024-03-22T05:45:41;34.60;;;16.43;;
3083;SDS011;1552;51.952;7.618;2024-03-22T05:48:08;38.00;;;16.27;;
3083;SDS011;1552;51.952;7.618;2024-03-22T05:50:34;39.40;;;16.93;;
3083;SDS011;1552;51.952;7.618;2024-03-22T05:53:00;29.57;;;16.10;;
3083;SDS011;1552;51.952;7.618;2024-03-22T05:55:25;38.03;;;17.57;;
3083;SDS011;1552;51.952;7.618;2024-03-22T05:57:52;33.83;;;16.50;;
3083;SDS011;1552;51.952;7.618;2024-03-22T06:00:17;36.77;;;16.80;;
3083;SDS011;1552;51.952;7.618;2024-03-22T06:02:44;38.37;;;16.70;;
3083;SDS011;1552;51.952;7.618;2024-03-22T06:05:10;28.27;;;15.77;;
3083;SDS011;1552;51.952;7.618;2024-03-22T06:07:37;28.70;;;15.00;;
3083;SDS011;1552;51.952;7.618;2024-03-22T06:10:07;33.53;;;16.67;;
3083;SDS011;1552;51.952;7.618;2024-03-22T06:12:34;38.47;;;16.30;;
3083;SDS011;1552;51.952;7.618;2024-03-22T06:15:00;33.47;;;16.57;;
3083;SDS011;1552;51.952;7.618;2024-03-22T06:17:26;30.57;;;15.73;;
3083;SDS011;1552;51.952;7.618;2024-03-22T06:19:51;31.07;;;15.13;;
3083;SDS011;1552;51.952;7.618;2024-03-22T06:22:19;33.00;;;16.13;;
3083;SDS011;1552;51.952;7.618;2024-03-22T06:24:44;35.10;;;15.43;;
3083;SDS011;1552;51.952;7.618;2024-03-22T06:27:10;29.57;;;15.30;;
3083;SDS011;1552;51.952;7.618;2024-03-22T06:29:38;26.57;;;14.23;;
3083;SDS011;1552;51.952;7.618;2024-03-22T06:32:04;29.83;;;15.17;;
3083;SDS011;1552;51.952;7.618;2024-03-22T06:34:30;30.40;;;15.17;;
3083;SDS011;1552;51.952;7.618;2024-03-22T06:36:56;39.97;;;16.40;;
3083;SDS011;1552;51.952;7.618;2024-03-22T06:39:23;29.90;;;15.27;;
3083;SDS011;1552;51.952;7.618;2024-03-22T06:41:49;32.83;;;14.30;;
3083;SDS011;1552;51.952;7.618;2024-03-22T06:44:15;31.80;;;13.53;;
3083;SDS011;1552;51.952;7.618;2024-03-22T06:46:40;32.03;;;14.63;;
3083;SDS011;1552;51.952;7.618;2024-03-22T06:49:07;31.87;;;15.10;;
3083;SDS011;1552;51.952;7.618;2024-03-22T06:51:32;30.70;;;14.70;;
3083;SDS011;1552;51.952;7.618;2024-03-22T06:53:58;23.10;;;13.73;;
3083;SDS011;1552;51.952;7.618;2024-03-22T06:56:25;29.33;;;13.83;;
3083;SDS011;1552;51.952;7.618;2024-03-22T06:58:51;35.60;;;14.63;;
3083;SDS011;1552;51.952;7.618;2024-03-22T07:01:16;38.47;;;16.30;;
3083;SDS011;1552;51.952;7.618;2024-03-22T07:03:43;25.77;;;13.23;;
3083;SDS011;1552;51.952;7.618;2024-03-22T07:06:10;27.93;;;14.33;;
3083;SDS011;1552;51.952;7.618;2024-03-22T07:08:37;29.80;;;15.27;;
3083;SDS011;1552;51.952;7.618;2024-03-22T07:11:04;27.67;;;13.67;;
3083;SDS011;1552;51.952;7.618;2024-03-22T07:13:32;26.40;;;12.87;;
3083;SDS011;1552;51.952;7.618;2024-03-22T07:15:58;25.13;;;13.20;;
3083;SDS011;1552;51.952;7.618;2024-03-22T07:18:24;26.83;;;14.37;;
3083;SDS011;1552;51.952;7.618;2024-03-22T07:20:50;28.10;;;14.73;;
3083;SDS011;1552;51.952;7.618;2024-03-22T07:23:15;28.47;;;12.97;;
3083;SDS011;1552;51.952;7.618;2024-03-22T07:25:42;28.10;;;14.20;;
3083;SDS011;1552;51.952;7.618;2024-03-22T07:28:10;27.47;;;13.60;;
3083;SDS011;1552;51.952;7.618;2024-03-22T07:30:38;25.00;;;14.37;;
3083;SDS011;1552;51.952;7.618;2024-03-22T07:33:03;23.27;;;12.63;;
3083;SDS011;1552;51.952;7.618;2024-03-22T07:35:30;25.27;;;13.10;;
3083;SDS011;1552;51.952;7.618;2024-03-22T07:37:56;30.03;;;13.40;;
3083;SDS011;1552;51.952;7.618;2024-03-22T07:40:22;25.47;;;12.90;;
3083;SDS011;1552;51.952;7.618;2024-03-22T07:42:47;27.20;;;13.73;;
3083;SDS011;1552;51.952;7.618;2024-03-22T07:45:13;26.50;;;13.97;;
3083;SDS011;1552;51.952;7.618;2024-03-22T07:47:40;29.03;;;13.63;;
3083;SDS011;1552;51.952;7.618;2024-03-22T07:50:07;26.50;;;13.60;;
3083;SDS011;1552;51.952;7.618;2024-03-22T07:52:33;26.07;;;13.23;;
3083;SDS011;1552;51.952;7.618;2024-03-22T07:55:00;22.97;;;13.20;;
3083;SDS011;1552;51.952;7.618;2024-03-22T07:57:27;26.43;;;12.60;;
3083;SDS011;1552;51.952;7.618;2024-03-22T07:59:55;26.53;;;12.53;;
3083;SDS011;1552;51.952;7.618;2024-03-22T08:02:21;23.37;;;13.03;;
3083;SDS011;1552;51.952;7.618;2024-03-22T08:04:48;20.80;;;12.37;;
3083;SDS011;1552;51.952;7.618;2024-03-22T08:07:14;26.20;;;13.27;;
3083;SDS011;1552;51.952;7.618;2024-03-22T08:09:40;29.00;;;14.30;;
3083;SDS011;1552;51.952;7.618;2024-03-22T08:12:06;24.63;;;12.23;;
3083;SDS011;1552;51.952;7.618;2024-03-22T08:14:32;22.67;;;12.83;;
3083;SDS011;1552;51.952;7.618;2024-03-22T08:16:58;27.53;;;12.80;;
3083;SDS011;1552;51.952;7.618;2024-03-22T08:19:24;26.17;;;13.20;;
3083;SDS011;1552;51.952;7.618;2024-03-22T08:21:51;23.03;;;12.50;;
3083;SDS011;1552;51.952;7.618;2024-03-22T08:24:18;25.10;;;12.33;;
3083;SDS011;1552;51.952;7.618;2024-03-22T08:26:43;20.87;;;11.03;;
3083;SDS011;1552;51.952;7.618;2024-03-22T08:29:12;19.87;;;11.93;;
3083;SDS011;1552;51.952;7.618;2024-03-22T08:31:40;28.13;;;13.07;;
3083;SDS011;1552;51.952;7.618;2024-03-22T08:34:07;26.30;;;12.93;;
3083;SDS011;1552;51.952;7.618;2024-03-22T08:36:32;21.43;;;12.10;;
3083;SDS011;1552;51.952;7.618;2024-03-22T08:39:00;21.10;;;12.50;;
3083;SDS011;1552;51.952;7.618;2024-03-22T08:41:25;25.57;;;13.13;;
3083;SDS011;1552;51.952;7.618;2024-03-22T08:43:51;23.63;;;11.47;;
3083;SDS011;1552;51.952;7.618;2024-03-22T08:46:17;23.93;;;11.77;;
3083;SDS011;1552;51.952;7.618;2024-03-22T08:48:43;22.13;;;11.20;;
3083;SDS011;1552;51.952;7.618;2024-03-22T08:51:08;20.00;;;11.30;;
3083;SDS011;1552;51.952;7.618;2024-03-22T08:53:35;20.37;;;10.27;;
3083;SDS011;1552;51.952;7.618;2024-03-22T08:56:01;22.33;;;12.77;;
3083;SDS011;1552;51.952;7.618;2024-03-22T08:58:28;20.27;;;11.80;;
3083;SDS011;1552;51.952;7.618;2024-03-22T09:00:54;20.00;;;11.27;;
3083;SDS011;1552;51.952;7.618;2024-03-22T09:03:20;18.93;;;10.80;;
3083;SDS011;1552;51.952;7.618;2024-03-22T09:05:46;18.63;;;11.20;;
3083;SDS011;1552;51.952;7.618;2024-03-22T09:08:12;23.07;;;11.10;;
3083;SDS011;1552;51.952;7.618;2024-03-22T09:10:37;18.57;;;9.90;;
3083;SDS011;1552;51.952;7.618;2024-03-22T09:13:05;20.93;;;11.60;;
3083;SDS011;1552;51.952;7.618;2024-03-22T09:15:32;26.73;;;11.47;;
3083;SDS011;1552;51.952;7.618;2024-03-22T09:17:58;24.47;;;10.40;;
3083;SDS011;1552;51.952;7.618;2024-03-22T09:20:23;25.70;;;10.30;;
3083;SDS011;1552;51.952;7.618;2024-03-22T09:22:49;20.00;;;10.87;;
3083;SDS011;1552;51.952;7.618;2024-03-22T09:25:15;21.23;;;11.07;;
3083;SDS011;1552;51.952;7.618;2024-03-22T09:27:41;22.27;;;10.83;;
3083;SDS011;1552;51.952;7.618;2024-03-22T09:30:08;20.17;;;10.30;;
3083;SDS011;1552;51.952;7.618;2024-03-22T09:32:35;21.77;;;10.13;;
3083;SDS011;1552;51.952;7.618;2024-03-22T09:35:00;16.27;;;9.27;;
3083;SDS011;1552;51.952;7.618;2024-03-22T09:37:26;20.07;;;10.43;;
3083;SDS011;1552;51.952;7.618;2024-03-22T09:39:52;14.87;;;9.23;;
3083;SDS011;1552;51.952;7.618;2024-03-22T09:42:18;19.60;;;9.90;;
3083;SDS011;1552;51.952;7.618;2024-03-22T09:44:46;19.20;;;9.23;;
3083;SDS011;1552;51.952;7.618;2024-03-22T09:47:15;16.07;;;9.20;;
3083;SDS011;1552;51.952;7.618;2024-03-22T09:49:41;19.60;;;10.93;;
3083;SDS011;1552;51.952;7.618;2024-03-22T09:52:11;17.17;;;9.43;;
3083;SDS011;1552;51.952;7.618;2024-03-22T09:54:36;17.90;;;10.30;;
3083;SDS011;1552;51.952;7.618;2024-03-22T09:57:04;19.93;;;9.20;;
3083;SDS011;1552;51.952;7.618;2024-03-22T09:59:29;19.30;;;10.47;;
3083;SDS011;1552;51.952;7.618;2024-03-22T10:01:55;19.03;;;9.67;;
3083;SDS011;1552;51.952;7.618;2024-03-22T10:04:23;23.03;;;10.10;;
3083;SDS011;1552;51.952;7.618;2024-03-22T10:06:49;14.83;;;9.00;;
3083;SDS011;1552;51.952;7.618;2024-03-22T10:09:15;18.80;;;10.90;;
3083;SDS011;1552;51.952;7.618;2024-03-22T10:11:43;18.63;;;10.80;;
3083;SDS011;1552;51.952;7.618;2024-03-22T10:14:09;21.77;;;10.47;;
3083;SDS011;1552;51.952;7.618;2024-03-22T10:16:36;19.07;;;10.30;;
3083;SDS011;1552;51.952;7.618;2024-03-22T10:19:01;18.93;;;10.57;;
3083;SDS011;1552;51.952;7.618;2024-03-22T10:21:29;18.83;;;10.07;;
3083;SDS011;1552;51.952;7.618;2024-03-22T10:23:54;19.20;;;9.83;;
3083;SDS011;1552;51.952;7.618;2024-03-22T10:26:20;17.50;;;10.17;;
3083;SDS011;1552;51.952;7.618;2024-03-22T10:28:46;18.87;;;10.53;;
3083;SDS011;1552;51.952;7.618;2024-03-22T10:31:13;18.43;;;10.73;;
3083;SDS011;1552;51.952;7.618;2024-03-22T10:33:38;21.47;;;10.37;;
3083;SDS011;1552;51.952;7.618;2024-03-22T10:36:06;18.20;;;10.80;;
3083;SDS011;1552;51.952;7.618;2024-03-22T10:38:33;20.00;;;10.07;;
3083;SDS011;1552;51.952;7.618;2024-03-22T10:40:59;18.47;;;10.37;;
3083;SDS011;1552;51.952;7.618;2024-03-22T10:43:25;21.60;;;11.00;;
3083;SDS011;1552;51.952;7.618;2024-03-22T10:45:51;26.67;;;10.17;;
3083;SDS011;1552;51.952;7.618;2024-03-22T10:48:19;19.17;;;10.57;;
3083;SDS011;1552;51.952;7.618;2024-03-22T10:50:47;20.50;;;9.57;;
3083;SDS011;1552;51.952;7.618;2024-03-22T10:53:14;21.33;;;11.07;;
3083;SDS011;1552;51.952;7.618;2024-03-22T10:55:43;17.07;;;10.87;;
3083;SDS011;1552;51.952;7.618;2024-03-22T10:58:14;19.50;;;10.70;;
3083;SDS011;1552;51.952;7.618;2024-03-22T11:00:41;24.93;;;12.17;;
3083;SDS011;1552;51.952;7.618;2024-03-22T11:03:08;21.73;;;10.97;;
3083;SDS011;1552;51.952;7.618;2024-03-22T11:05:34;23.13;;;11.73;;
3083;SDS011;1552;51.952;7.618;2024-03-22T11:07:59;18.07;;;10.73;;
3083;SDS011;1552;51.952;7.618;2024-03-22T11:10:28;19.83;;;11.77;;
3083;SDS011;1552;51.952;7.618;2024-03-22T11:13:00;21.50;;;11.60;;
3083;SDS011;1552;51.952;7.618;2024-03-22T11:15:28;20.13;;;11.63;;
3083;SDS011;1552;51.952;7.618;2024-03-22T11:17:53;21.57;;;10.77;;
3083;SDS011;1552;51.952;7.618;2024-03-22T11:20:19;20.03;;;11.30;;
3083;SDS011;1552;51.952;7.618;2024-03-22T11:22:45;19.40;;;11.33;;
3083;SDS011;1552;51.952;7.618;2024-03-22T11:25:11;22.23;;;12.43;;
3083;SDS011;1552;51.952;7.618;2024-03-22T11:27:36;19.77;;;11.70;;
3083;SDS011;1552;51.952;7.618;2024-03-22T11:30:04;23.23;;;11.77;;
3083;SDS011;1552;51.952;7.618;2024-03-22T11:32:30;20.40;;;11.87;;
3083;SDS011;1552;51.952;7.618;2024-03-22T11:34:56;24.33;;;13.43;;
3083;SDS011;1552;51.952;7.618;2024-03-22T11:37:22;21.73;;;12.40;;
3083;SDS011;1552;51.952;7.618;2024-03-22T11:39:48;21.43;;;11.90;;
3083;SDS011;1552;51.952;7.618;2024-03-22T11:42:14;22.07;;;12.47;;
3083;SDS011;1552;51.952;7.618;2024-03-22T11:44:41;23.03;;;12.67;;
3083;SDS011;1552;51.952;7.618;2024-03-22T11:47:08;24.43;;;13.60;;
3083;SDS011;1552;51.952;7.618;2024-03-22T11:49:36;27.93;;;11.97;;
3083;SDS011;1552;51.952;7.618;2024-03-22T11:52:02;23.43;;;13.50;;
3083;SDS011;1552;51.952;7.618;2024-03-22T11:54:28;25.77;;;13.70;;
3083;SDS011;1552;51.952;7.618;2024-03-22T11:56:55;20.37;;;12.60;;
3083;SDS011;1552;51.952;7.618;2024-03-22T11:59:21;22.60;;;12.87;;
3083;SDS011;1552;51.952;7.618;2024-03-22T12:01:47;29.70;;;14.37;;
3083;SDS011;1552;51.952;7.618;2024-03-22T12:04:14;22.97;;;12.93;;
3083;SDS011;1552;51.952;7.618;2024-03-22T12:06:40;27.63;;;14.07;;
3083;SDS011;1552;51.952;7.618;2024-03-22T12:09:07;25.73;;;13.93;;
3083;SDS011;1552;51.952;7.618;2024-03-22T12:11:33;27.70;;;13.93;;
3083;SDS011;1552;51.952;7.618;2024-03-22T12:14:00;23.17;;;12.93;;
3083;SDS011;1552;51.952;7.618;2024-03-22T12:16:25;24.30;;;13.30;;
3083;SDS011;1552;51.952;7.618;2024-03-22T12:18:52;27.60;;;15.10;;
3083;SDS011;1552;51.952;7.618;2024-03-22T12:21:18;25.57;;;14.00;;
3083;SDS011;1552;51.952;7.618;2024-03-22T12:23:44;27.60;;;13.77;;
3083;SDS011;1552;51.952;7.618;2024-03-22T12:26:10;26.83;;;14.40;;
3083;SDS011;1552;51.952;7.618;2024-03-22T12:28:36;27.13;;;14.13;;
3083;SDS011;1552;51.952;7.618;2024-03-22T12:31:01;28.03;;;14.40;;
3083;SDS011;1552;51.952;7.618;2024-03-22T12:33:28;30.50;;;16.10;;
3083;SDS011;1552;51.952;7.618;2024-03-22T12:35:53;29.73;;;14.33;;
3083;SDS011;1552;51.952;7.618;2024-03-22T12:38:21;27.87;;;15.73;;
3083;SDS011;1552;51.952;7.618;2024-03-22T12:40:46;31.80;;;15.13;;
3083;SDS011;1552;51.952;7.618;2024-03-22T12:43:12;30.63;;;15.67;;
3083;SDS011;1552;51.952;7.618;2024-03-22T12:45:38;30.37;;;15.67;;
3083;SDS011;1552;51.952;7.618;2024-03-22T12:48:04;26.73;;;14.13;;
3083;SDS011;1552;51.952;7.618;2024-03-22T12:50:30;27.77;;;15.10;;
3083;SDS011;1552;51.952;7.618;2024-03-22T12:52:56;31.17;;;15.83;;
3083;SDS011;1552;51.952;7.618;2024-03-22T12:55:23;27.37;;;14.37;;
3083;SDS011;1552;51.952;7.618;2024-03-22T12:57:50;28.90;;;15.93;;
3083;SDS011;1552;51.952;7.618;2024-03-22T13:00:16;26.20;;;14.63;;
3083;SDS011;1552;51.952;7.618;2024-03-22T13:02:44;29.93;;;15.87;;
3083;SDS011;1552;51.952;7.618;2024-03-22T13:05:09;28.77;;;14.73;;
3083;SDS011;1552;51.952;7.618;2024-03-22T13:07:35;25.43;;;14.40;;
3083;SDS011;1552;51.952;7.618;2024-03-22T13:10:01;28.43;;;13.43;;
3083;SDS011;1552;51.952;7.618;2024-03-22T13:12:29;27.20;;;14.63;;
3083;SDS011;1552;51.952;7.618;2024-03-22T13:14:56;26.70;;;14.80;;
3083;SDS011;1552;51.952;7.618;2024-03-22T13:17:22;27.50;;;14.30;;
3083;SDS011;1552;51.952;7.618;2024-03-22T13:19:48;29.90;;;15.23;;
3083;SDS011;1552;51.952;7.618;2024-03-22T13:22:15;26.83;;;13.83;;
3083;SDS011;1552;51.952;7.618;2024-03-22T13:24:43;27.80;;;14.00;;
3083;SDS011;1552;51.952;7.618;2024-03-22T13:27:09;30.00;;;14.03;;
3083;SDS011;1552;51.952;7.618;2024-03-22T13:29:36;25.43;;;14.53;;
3083;SDS011;1552;51.952;7.618;2024-03-22T13:32:02;25.70;;;14.17;;
3083;SDS011;1552;51.952;7.618;2024-03-22T13:34:29;29.27;;;13.73;;
3083;SDS011;1552;51.952;7.618;2024-03-22T13:36:55;24.73;;;13.93;;
3083;SDS011;1552;51.952;7.618;2024-03-22T13:39:21;27.70;;;12.57;;
3083;SDS011;1552;51.952;7.618;2024-03-22T13:41:48;24.30;;;13.33;;
3083;SDS011;1552;51.952;7.618;2024-03-22T13:44:13;26.33;;;13.03;;
3083;SDS011;1552;51.952;7.618;2024-03-22T13:46:41;27.93;;;14.23;;
3083;SDS011;1552;51.952;7.618;2024-03-22T13:49:12;23.87;;;13.90;;
3083;SDS011;1552;51.952;7.618;2024-03-22T13:51:39;30.73;;;13.67;;
3083;SDS011;1552;51.952;7.618;2024-03-22T13:54:04;25.50;;;13.17;;
3083;SDS011;1552;51.952;7.618;2024-03-22T13:56:31;23.07;;;12.37;;
3083;SDS011;1552;51.952;7.618;2024-03-22T13:58:56;19.80;;;12.13;;
3083;SDS011;1552;51.952;7.618;2024-03-22T14:01:23;24.30;;;12.33;;
3083;SDS011;1552;51.952;7.618;2024-03-22T14:03:49;22.43;;;12.63;;
3083;SDS011;1552;51.952;7.618;2024-03-22T14:06:16;21.33;;;12.23;;
3083;SDS011;1552;51.952;7.618;2024-03-22T14:08:41;25.27;;;12.87;;
3083;SDS011;1552;51.952;7.618;2024-03-22T14:11:07;22.60;;;12.00;;
3083;SDS011;1552;51.952;7.618;2024-03-22T14:13:32;28.27;;;13.27;;
3083;SDS011;1552;51.952;7.618;2024-03-22T14:15:59;25.67;;;14.47;;
3083;SDS011;1552;51.952;7.618;2024-03-22T14:18:24;27.53;;;13.30;;
3083;SDS011;1552;51.952;7.618;2024-03-22T14:20:52;27.97;;;14.57;;
3083;SDS011;1552;51.952;7.618;2024-03-22T14:23:17;25.27;;;14.97;;
3083;SDS011;1552;51.952;7.618;2024-03-22T14:25:44;24.43;;;13.63;;
3083;SDS011;1552;51.952;7.618;2024-03-22T14:28:11;28.93;;;14.90;;
3083;SDS011;1552;51.952;7.618;2024-03-22T14:30:38;23.10;;;13.13;;
3083;SDS011;1552;51.952;7.618;2024-03-22T14:33:04;22.63;;;13.27;;
3083;SDS011;1552;51.952;7.618;2024-03-22T14:35:30;26.43;;;13.03;;
3083;SDS011;1552;51.952;7.618;2024-03-22T14:37:57;26.97;;;13.07;;
3083;SDS011;1552;51.952;7.618;2024-03-22T14:40:23;19.70;;;12.27;;
3083;SDS011;1552;51.952;7.618;2024-03-22T14:42:48;26.33;;;11.97;;